createdAt,value
2023-03-19T00:00:29.451Z,28.30
2023-03-19T00:03:36.114Z,29.50
2023-03-19T00:06:42.286Z,29.10
2023-03-19T00:09:48.468Z,25.10
2023-03-19T00:15:58.835Z,25.20
2023-03-19T00:19:05.202Z,28.00
2023-03-19T00:25:15.912Z,34.20
2023-03-19T00:28:21.853Z,40.40
2023-03-19T00:31:29.351Z,37.40
2023-03-19T00:34:35.129Z,30.10
2023-03-19T00:37:42.088Z,46.70
2023-03-19T00:40:48.678Z,48.00
2023-03-19T00:43:57.487Z,40.60
2023-03-19T00:47:03.293Z,38.90
2023-03-19T00:50:11.167Z,36.90
2023-03-19T00:53:17.469Z,42.30
2023-03-19T00:56:23.247Z,42.40
2023-03-19T00:59:29.252Z,41.20
2023-03-19T01:02:35.588Z,41.70
2023-03-19T01:08:45.664Z,36.50
2023-03-19T01:11:51.449Z,36.00
2023-03-19T01:14:57.277Z,30.90
2023-03-19T01:18:03.245Z,28.20
2023-03-19T01:21:10.935Z,24.80
2023-03-19T01:24:17.190Z,25.50
2023-03-19T01:27:23.109Z,28.30
2023-03-19T01:30:29.020Z,27.30
2023-03-19T01:33:35.035Z,31.60
2023-03-19T01:36:40.939Z,29.60
2023-03-19T01:39:46.797Z,30.30
2023-03-19T01:42:57.979Z,23.90
2023-03-19T01:46:08.569Z,27.70
2023-03-19T01:49:15.380Z,24.70
2023-03-19T01:52:22.710Z,27.20
2023-03-19T01:55:28.633Z,24.50
2023-03-19T01:58:34.557Z,28.80
2023-03-19T02:01:45.081Z,25.10
2023-03-19T02:04:55.819Z,25.80
2023-03-19T02:08:05.341Z,25.10
2023-03-19T02:11:11.804Z,25.30
2023-03-19T02:17:23.285Z,29.10
2023-03-19T02:20:33.962Z,26.10
2023-03-19T02:23:46.783Z,30.80
2023-03-19T02:26:53.460Z,28.60
2023-03-19T02:30:01.390Z,142.20
2023-03-19T02:33:08.584Z,86.90
2023-03-19T02:36:19.393Z,32.70
2023-03-19T02:39:31.004Z,37.90
2023-03-19T02:42:36.865Z,31.60
2023-03-19T02:45:42.746Z,25.70
2023-03-19T02:48:48.593Z,24.10
2023-03-19T02:51:54.534Z,42.30
2023-03-19T02:55:00.286Z,50.70
2023-03-19T02:58:06.156Z,60.80
2023-03-19T03:01:12.067Z,40.50
2023-03-19T03:04:17.973Z,36.20
2023-03-19T03:07:23.925Z,33.90
2023-03-19T03:10:30.574Z,29.50
2023-03-19T03:13:37.442Z,25.60
2023-03-19T03:16:43.787Z,27.70
2023-03-19T03:22:53.784Z,30.00
2023-03-19T03:25:59.537Z,29.20
2023-03-19T03:29:05.772Z,27.40
2023-03-19T03:32:12.164Z,29.50
2023-03-19T03:38:28.058Z,16.30
2023-03-19T03:41:33.897Z,14.30
2023-03-19T03:44:39.947Z,17.30
2023-03-19T03:47:46.339Z,17.90
2023-03-19T03:53:56.387Z,23.90
2023-03-19T03:57:03.598Z,23.30
2023-03-19T04:00:13.215Z,24.30
2023-03-19T04:03:19.629Z,23.50
2023-03-19T04:06:28.593Z,30.50
2023-03-19T04:09:34.371Z,25.60
2023-03-19T04:12:41.542Z,16.20
2023-03-19T04:15:48.000Z,22.70
2023-03-19T04:21:57.914Z,22.80
2023-03-19T04:25:05.120Z,21.10
2023-03-19T04:28:14.268Z,21.20
2023-03-19T04:31:20.224Z,26.20
2023-03-19T04:34:26.174Z,18.70
2023-03-19T04:37:32.107Z,16.60
2023-03-19T04:40:37.972Z,16.60
2023-03-19T04:43:43.928Z,15.70
2023-03-19T04:46:49.773Z,14.90
2023-03-19T04:49:55.738Z,17.90
2023-03-19T04:53:01.700Z,21.20
2023-03-19T04:56:09.084Z,18.90
2023-03-19T04:59:14.843Z,22.10
2023-03-19T05:02:20.898Z,21.10
2023-03-19T05:05:27.072Z,20.30
2023-03-19T05:08:33.084Z,23.40
2023-03-19T05:11:39.396Z,21.70
2023-03-19T05:17:50.190Z,20.40
2023-03-19T05:24:00.674Z,24.00
2023-03-19T05:27:07.606Z,22.70
2023-03-19T05:30:16.074Z,22.10
2023-03-19T05:33:22.676Z,22.50
2023-03-19T05:36:29.221Z,21.40
2023-03-19T05:39:35.390Z,26.20
2023-03-19T05:42:41.244Z,20.90
2023-03-19T05:45:51.469Z,20.30
2023-03-19T05:48:57.464Z,21.80
2023-03-19T05:52:03.312Z,21.10
2023-03-19T05:55:11.143Z,23.90
2023-03-19T05:58:16.997Z,23.10
2023-03-19T06:01:23.264Z,21.80
2023-03-19T06:04:29.200Z,21.30
2023-03-19T06:07:35.060Z,20.50
2023-03-19T06:10:40.913Z,22.20
2023-03-19T06:13:47.328Z,21.50
2023-03-19T06:16:53.342Z,23.40
2023-03-19T06:19:59.096Z,21.70
2023-03-19T06:23:05.059Z,22.60
2023-03-19T06:26:11.036Z,22.90
2023-03-19T06:29:16.983Z,24.70
2023-03-19T06:32:22.950Z,20.60
2023-03-19T06:35:29.282Z,20.90
2023-03-19T06:41:39.189Z,21.20
2023-03-19T06:44:45.161Z,19.90
2023-03-19T06:47:53.510Z,19.50
2023-03-19T06:50:59.718Z,18.90
2023-03-19T06:54:06.091Z,18.20
2023-03-19T07:00:18.709Z,17.60
2023-03-19T07:03:24.483Z,17.90
2023-03-19T07:06:30.435Z,15.70
2023-03-19T07:09:36.609Z,15.90
2023-03-19T07:12:42.388Z,20.50
2023-03-19T07:15:48.319Z,15.90
2023-03-19T07:18:54.330Z,17.10
2023-03-19T07:22:00.071Z,19.00
2023-03-19T07:25:06.736Z,17.50
2023-03-19T07:28:12.564Z,17.10
2023-03-19T07:31:18.780Z,16.20
2023-03-19T07:37:29.108Z,15.70
2023-03-19T07:40:35.244Z,16.60
2023-03-19T07:46:45.855Z,16.80
2023-03-19T07:49:51.657Z,16.50
2023-03-19T07:52:57.565Z,15.50
2023-03-19T07:56:03.529Z,16.40
2023-03-19T07:59:09.407Z,14.60
2023-03-19T08:02:16.510Z,14.80
2023-03-19T08:05:22.624Z,14.60
2023-03-19T08:08:28.486Z,15.40
2023-03-19T08:11:34.261Z,14.20
2023-03-19T08:14:40.016Z,14.50
2023-03-19T08:17:46.055Z,18.80
2023-03-19T08:20:51.896Z,12.60
2023-03-19T08:23:57.767Z,12.20
2023-03-19T08:27:03.975Z,15.00
2023-03-19T08:30:12.357Z,14.70
2023-03-19T08:33:18.543Z,22.00
2023-03-19T08:39:29.377Z,18.60
2023-03-19T08:42:35.704Z,36.20
2023-03-19T08:48:46.458Z,19.50
2023-03-19T08:51:52.320Z,13.30
2023-03-19T08:54:58.381Z,30.10
2023-03-19T08:58:04.649Z,13.20
2023-03-19T09:04:16.835Z,14.20
2023-03-19T09:07:22.760Z,17.10
2023-03-19T09:10:28.894Z,15.80
2023-03-19T09:13:35.111Z,12.90
2023-03-19T09:19:45.339Z,11.90
2023-03-19T09:22:51.297Z,11.40
2023-03-19T09:25:57.359Z,12.50
2023-03-19T09:29:03.689Z,10.30
2023-03-19T09:35:14.734Z,11.10
2023-03-19T09:41:34.839Z,12.20
2023-03-19T09:44:44.381Z,12.10
2023-03-19T09:47:54.775Z,9.90
2023-03-19T09:51:04.588Z,12.00
2023-03-19T09:54:23.873Z,10.60
2023-03-19T09:57:30.029Z,11.40
2023-03-19T10:03:54.460Z,10.30
2023-03-19T10:07:08.647Z,12.40
2023-03-19T10:10:48.610Z,12.10
2023-03-19T10:14:05.197Z,11.10
2023-03-19T10:17:20.759Z,10.60
2023-03-19T10:20:34.751Z,10.40
2023-03-19T10:23:46.918Z,11.50
2023-03-19T10:26:58.035Z,10.40
2023-03-19T10:30:07.147Z,10.00
2023-03-19T10:33:23.512Z,10.80
2023-03-19T10:36:34.694Z,12.00
2023-03-19T10:39:41.803Z,11.40
2023-03-19T10:43:04.085Z,10.00
2023-03-19T10:46:15.757Z,10.90
2023-03-19T10:49:21.538Z,11.40
2023-03-19T10:52:32.140Z,11.40
2023-03-19T10:55:38.097Z,22.10
2023-03-19T10:58:56.760Z,18.80
2023-03-19T11:02:16.501Z,14.60
2023-03-19T11:05:31.907Z,11.30
2023-03-19T11:08:40.191Z,11.10
2023-03-19T11:11:50.838Z,11.20
2023-03-19T11:14:59.469Z,10.50
2023-03-19T11:18:17.029Z,11.80
2023-03-19T11:21:30.319Z,11.20
2023-03-19T11:24:40.519Z,11.10
2023-03-19T11:27:48.136Z,11.00
2023-03-19T11:31:03.752Z,10.40
2023-03-19T11:34:30.981Z,11.40
2023-03-19T11:37:52.196Z,10.20
2023-03-19T11:41:07.174Z,10.70
2023-03-19T11:44:21.017Z,9.50
2023-03-19T11:47:36.393Z,10.90
2023-03-19T11:50:50.576Z,11.60
2023-03-19T11:54:06.665Z,10.10
2023-03-19T11:57:20.036Z,10.50
2023-03-19T12:00:34.023Z,10.80
2023-03-19T12:04:15.546Z,11.20
2023-03-19T12:07:31.729Z,10.10
2023-03-19T12:10:53.734Z,11.80
2023-03-19T12:14:25.313Z,10.40
2023-03-19T12:17:45.985Z,10.80
2023-03-19T12:21:04.988Z,10.10
2023-03-19T12:24:23.648Z,11.00
2023-03-19T12:27:40.816Z,11.10
2023-03-19T12:30:50.783Z,11.20
2023-03-19T12:34:07.831Z,10.00
2023-03-19T12:37:22.639Z,10.70
2023-03-19T12:40:36.964Z,11.00
2023-03-19T12:43:51.454Z,10.70
2023-03-19T12:47:04.414Z,11.60
2023-03-19T12:50:15.415Z,10.30
2023-03-19T12:53:32.981Z,10.80
2023-03-19T12:56:45.167Z,10.80
2023-03-19T12:59:56.638Z,11.40
2023-03-19T13:03:09.292Z,10.80
2023-03-19T13:06:21.922Z,11.50
2023-03-19T13:09:33.305Z,12.10
2023-03-19T13:12:39.787Z,11.60
2023-03-19T13:15:50.300Z,11.10
2023-03-19T13:19:09.977Z,11.30
2023-03-19T13:22:20.604Z,10.70
2023-03-19T13:25:33.880Z,11.20
2023-03-19T13:28:55.230Z,10.40
2023-03-19T13:32:07.638Z,10.10
2023-03-19T13:35:21.862Z,10.50
2023-03-19T13:38:34.436Z,11.10
2023-03-19T13:42:09.042Z,11.70
2023-03-19T13:45:35.990Z,10.70
2023-03-19T13:48:52.889Z,11.80
2023-03-19T13:52:04.265Z,9.80
2023-03-19T13:55:34.494Z,9.20
2023-03-19T13:58:53.135Z,11.60
2023-03-19T14:02:00.242Z,10.80
2023-03-19T14:05:10.533Z,10.20
2023-03-19T14:08:24.602Z,9.80
2023-03-19T14:11:34.058Z,11.70
2023-03-19T14:14:45.362Z,11.10
2023-03-19T14:18:01.567Z,10.20
2023-03-19T14:21:12.955Z,10.40
2023-03-19T14:28:06.740Z,9.80
2023-03-19T14:31:23.113Z,10.00
2023-03-19T14:34:33.828Z,11.20
2023-03-19T14:37:49.210Z,10.30
2023-03-19T14:40:57.339Z,12.10
2023-03-19T14:44:24.508Z,10.20
2023-03-19T14:47:48.982Z,11.40
2023-03-19T14:51:10.655Z,12.60
2023-03-19T14:54:29.284Z,15.30
2023-03-19T14:57:36.304Z,10.70
2023-03-19T15:00:44.705Z,12.60
2023-03-19T15:03:56.910Z,11.80
2023-03-19T15:07:03.243Z,11.20
2023-03-19T15:10:16.074Z,10.50
2023-03-19T15:13:37.062Z,11.90
2023-03-19T15:16:54.950Z,14.40
2023-03-19T15:20:03.645Z,11.00
2023-03-19T15:23:25.675Z,10.90
2023-03-19T15:26:37.963Z,11.00
2023-03-19T15:29:44.270Z,10.60
2023-03-19T15:33:04.233Z,11.50
2023-03-19T15:36:18.553Z,11.10
2023-03-19T15:39:27.733Z,10.70
2023-03-19T15:42:34.097Z,10.60
2023-03-19T15:45:40.994Z,10.70
2023-03-19T15:48:50.977Z,10.70
2023-03-19T15:52:03.053Z,11.60
2023-03-19T15:55:10.590Z,11.30
2023-03-19T15:58:21.534Z,12.00
2023-03-19T16:01:28.231Z,12.40
2023-03-19T16:04:55.979Z,12.40
2023-03-19T16:08:04.955Z,12.20
2023-03-19T16:11:27.314Z,10.60
2023-03-19T16:14:41.949Z,10.30
2023-03-19T16:17:49.374Z,9.80
2023-03-19T16:21:14.485Z,11.00
2023-03-19T16:24:27.542Z,11.70
2023-03-19T16:27:38.450Z,12.00
2023-03-19T16:30:49.609Z,11.70
2023-03-19T16:33:57.232Z,11.20
2023-03-19T16:37:03.859Z,10.90
2023-03-19T16:40:41.198Z,11.50
2023-03-19T16:43:48.747Z,28.80
2023-03-19T16:46:55.581Z,12.70
2023-03-19T16:50:01.662Z,12.70
2023-03-19T16:53:16.230Z,11.10
2023-03-19T16:56:22.293Z,11.60
2023-03-19T16:59:30.962Z,13.50
2023-03-19T17:02:36.695Z,16.50
2023-03-19T17:05:42.720Z,14.70
2023-03-19T17:08:49.265Z,15.40
2023-03-19T17:11:55.359Z,38.80
2023-03-19T17:15:01.643Z,21.50
2023-03-19T17:21:22.574Z,24.30
2023-03-19T17:24:30.901Z,54.40
2023-03-19T17:27:37.339Z,108.50
2023-03-19T17:33:47.846Z,48.40
2023-03-19T17:39:59.299Z,18.90
2023-03-19T17:43:06.943Z,17.40
2023-03-19T17:46:17.569Z,18.70
2023-03-19T17:49:26.234Z,17.80
2023-03-19T17:52:32.013Z,18.90
2023-03-19T17:55:37.839Z,29.80
2023-03-19T17:58:44.004Z,39.40
2023-03-19T18:01:50.068Z,34.80
2023-03-19T18:04:56.337Z,32.10
2023-03-19T18:11:06.781Z,54.40
2023-03-19T18:14:12.785Z,34.10
2023-03-19T18:17:20.364Z,40.50
2023-03-19T18:20:29.815Z,26.50
2023-03-19T18:23:35.580Z,28.90
2023-03-19T18:26:41.725Z,24.60
2023-03-19T18:29:48.003Z,24.80
2023-03-19T18:32:57.146Z,22.90
2023-03-19T18:36:04.402Z,36.30
2023-03-19T18:39:14.342Z,43.90
2023-03-19T18:42:20.360Z,35.70
2023-03-19T18:45:30.607Z,32.00
2023-03-19T18:48:36.661Z,31.80
2023-03-19T18:51:58.791Z,26.60
2023-03-19T18:55:07.974Z,25.50
2023-03-19T18:58:20.533Z,23.40
2023-03-19T19:01:27.885Z,28.80
2023-03-19T19:04:33.836Z,26.20
2023-03-19T19:07:39.758Z,23.50
2023-03-19T19:10:48.537Z,27.30
2023-03-19T19:13:57.223Z,25.20
2023-03-19T19:17:03.201Z,23.70
2023-03-19T19:20:12.018Z,24.90
2023-03-19T19:23:18.585Z,22.50
2023-03-19T19:26:27.027Z,24.60
2023-03-19T19:29:32.938Z,23.30
2023-03-19T19:32:39.504Z,24.00
2023-03-19T19:35:45.942Z,21.80
2023-03-19T19:38:52.257Z,24.40
2023-03-19T19:45:03.868Z,24.70
2023-03-19T19:48:16.810Z,22.30
2023-03-19T19:51:24.921Z,22.30
2023-03-19T19:54:30.857Z,24.20
2023-03-19T19:57:36.924Z,22.80
2023-03-19T20:00:47.748Z,24.50
2023-03-19T20:03:59.629Z,24.80
2023-03-19T20:07:05.548Z,27.00
2023-03-19T20:10:14.433Z,24.70
2023-03-19T20:13:26.195Z,26.30
2023-03-19T20:16:31.995Z,22.40
2023-03-19T20:19:37.884Z,23.40
2023-03-19T20:22:43.945Z,24.50
2023-03-19T20:25:51.070Z,31.00
2023-03-19T20:28:57.091Z,31.10
2023-03-19T20:32:03.152Z,29.50
2023-03-19T20:35:16.072Z,26.20
2023-03-19T20:38:21.826Z,30.50
2023-03-19T20:41:28.605Z,29.60
2023-03-19T20:44:34.672Z,27.80
2023-03-19T20:47:40.859Z,26.10
2023-03-19T20:50:47.935Z,28.60
2023-03-19T20:53:54.102Z,26.50
2023-03-19T20:56:59.989Z,25.00
2023-03-19T21:00:18.499Z,27.30
2023-03-19T21:03:26.397Z,28.10
2023-03-19T21:06:42.720Z,24.70
2023-03-19T21:09:58.124Z,27.20
2023-03-19T21:13:05.491Z,26.80
2023-03-19T21:16:17.543Z,29.40
2023-03-19T21:19:25.940Z,30.60
2023-03-19T21:22:33.143Z,28.60
2023-03-19T21:25:39.327Z,31.40
2023-03-19T21:28:46.637Z,32.30
2023-03-19T21:31:57.945Z,30.70
2023-03-19T21:35:03.776Z,31.80
2023-03-19T21:38:09.634Z,33.70
2023-03-19T21:41:25.115Z,32.70
2023-03-19T21:44:31.487Z,31.00
2023-03-19T21:47:37.228Z,30.30
2023-03-19T21:50:43.541Z,28.40
2023-03-19T21:56:53.849Z,34.20
2023-03-19T21:59:59.745Z,34.80
2023-03-19T22:03:05.809Z,32.50
2023-03-19T22:06:12.754Z,37.40
2023-03-19T22:09:18.645Z,34.70
2023-03-19T22:12:29.109Z,34.90
2023-03-19T22:15:38.020Z,67.40
2023-03-19T22:18:43.926Z,51.10
2023-03-19T22:21:50.731Z,107.50
2023-03-19T22:24:59.369Z,37.80
2023-03-19T22:28:10.524Z,27.10
2023-03-19T22:31:16.617Z,27.70
2023-03-19T22:34:25.267Z,32.50
2023-03-19T22:37:31.991Z,28.70
2023-03-19T22:40:38.721Z,29.90
2023-03-19T22:43:46.269Z,29.70
2023-03-19T22:46:52.166Z,29.70
2023-03-19T22:49:58.471Z,29.10
2023-03-19T22:56:10.893Z,26.50
2023-03-19T22:59:16.734Z,30.70
2023-03-19T23:02:22.613Z,29.10
2023-03-19T23:05:31.815Z,32.10
2023-03-19T23:08:37.650Z,31.50
2023-03-19T23:11:43.854Z,33.10
2023-03-19T23:14:49.922Z,31.30
2023-03-19T23:17:58.269Z,33.60
2023-03-19T23:21:05.087Z,32.00
2023-03-19T23:24:14.746Z,37.80
2023-03-19T23:27:26.100Z,33.60
2023-03-19T23:30:34.176Z,32.50
2023-03-19T23:33:40.200Z,35.30
2023-03-19T23:36:46.381Z,30.90
2023-03-19T23:39:53.764Z,33.70
2023-03-19T23:43:02.274Z,31.60
2023-03-19T23:46:11.637Z,33.10
2023-03-19T23:49:19.429Z,31.40
2023-03-19T23:52:25.275Z,32.60
2023-03-19T23:55:32.410Z,36.90
2023-03-19T23:58:43.240Z,31.00
